createdAt,value
2022-11-01T00:00:08.443Z,410.83
2022-11-01T00:00:53.478Z,410.83
2022-11-01T00:01:38.386Z,410.83
2022-11-01T00:02:23.062Z,410.83
2022-11-01T00:03:08.346Z,410.83
2022-11-01T00:03:54.037Z,410.83
2022-11-01T00:04:39.067Z,410.83
2022-11-01T00:05:24.226Z,410.83
2022-11-01T00:06:08.870Z,410.83
2022-11-01T00:06:53.316Z,410.83
2022-11-01T00:07:38.472Z,410.83
2022-11-01T00:08:23.583Z,410.83
2022-11-01T00:09:08.892Z,410.83
2022-11-01T00:09:54.136Z,410.83
2022-11-01T00:11:11.161Z,0.00
2022-11-01T00:11:56.421Z,0.00
2022-11-01T00:12:41.477Z,0.00
2022-11-01T00:13:26.267Z,0.00
2022-11-01T00:14:11.488Z,0.00
2022-11-01T00:14:56.661Z,0.00
2022-11-01T00:15:41.841Z,0.00
2022-11-01T00:16:26.670Z,0.00
2022-11-01T00:17:11.814Z,0.00
2022-11-01T00:17:56.467Z,0.00
2022-11-01T00:18:41.823Z,0.00
2022-11-01T00:19:27.343Z,0.00
2022-11-01T00:20:11.942Z,0.00
2022-11-01T00:20:56.796Z,0.00
2022-11-01T00:21:42.258Z,0.00
2022-11-01T00:22:26.869Z,0.00
2022-11-01T00:23:12.372Z,0.00
2022-11-01T00:23:57.324Z,0.00
2022-11-01T00:24:42.235Z,0.00
2022-11-01T00:25:27.506Z,0.00
2022-11-01T00:26:12.114Z,0.00
2022-11-01T00:26:57.450Z,0.00
2022-11-01T00:27:42.507Z,0.00
2022-11-01T00:28:27.432Z,0.00
2022-11-01T00:29:13.128Z,0.00
2022-11-01T00:29:57.489Z,0.00
2022-11-01T00:30:43.039Z,0.00
2022-11-01T00:31:27.693Z,0.00
2022-11-01T00:32:12.868Z,0.00
2022-11-01T00:32:57.898Z,0.00
2022-11-01T00:33:42.953Z,0.00
2022-11-01T00:34:28.051Z,0.00
2022-11-01T00:35:13.180Z,0.00
2022-11-01T00:35:58.126Z,0.00
2022-11-01T00:36:43.075Z,0.00
2022-11-01T00:37:28.396Z,0.00
2022-11-01T00:38:13.392Z,0.00
2022-11-01T00:38:58.245Z,0.00
2022-11-01T00:39:43.209Z,0.00
2022-11-01T00:40:28.614Z,0.00
2022-11-01T00:41:13.415Z,0.00
2022-11-01T00:41:58.576Z,0.00
2022-11-01T00:42:43.530Z,0.00
2022-11-01T00:43:28.854Z,0.00
2022-11-01T00:44:13.645Z,0.00
2022-11-01T00:44:58.600Z,0.00
2022-11-01T00:45:43.619Z,0.00
2022-11-01T00:46:28.910Z,0.00
2022-11-01T00:47:13.868Z,0.00
2022-11-01T00:47:59.326Z,0.00
2022-11-01T00:48:44.082Z,0.00
2022-11-01T00:49:29.266Z,0.00
2022-11-01T00:50:14.504Z,0.00
2022-11-01T00:50:59.456Z,0.00
2022-11-01T00:51:44.158Z,0.00
2022-11-01T00:52:29.626Z,0.00
2022-11-01T00:53:14.355Z,0.00
2022-11-01T00:53:59.381Z,0.00
2022-11-01T00:54:44.431Z,0.00
2022-11-01T00:55:29.533Z,0.00
2022-11-01T00:56:14.569Z,0.00
2022-11-01T00:56:59.744Z,0.00
2022-11-01T00:57:44.930Z,0.00
2022-11-01T00:58:29.621Z,0.00
2022-11-01T00:59:14.563Z,0.00
2022-11-01T01:00:00.043Z,0.00
2022-11-01T01:00:45.026Z,0.00
2022-11-01T01:01:30.263Z,0.00
2022-11-01T01:02:14.869Z,0.00
2022-11-01T01:03:00.285Z,0.00
2022-11-01T01:03:45.427Z,0.00
2022-11-01T01:04:30.267Z,0.00
2022-11-01T01:05:15.268Z,0.00
2022-11-01T01:06:00.249Z,0.00
2022-11-01T01:06:45.338Z,0.00
2022-11-01T01:07:30.606Z,0.00
2022-11-01T01:08:15.571Z,0.00
2022-11-01T01:09:00.821Z,0.00
2022-11-01T01:09:45.355Z,0.00
2022-11-01T01:10:30.510Z,0.00
2022-11-01T01:11:15.474Z,0.00
2022-11-01T01:12:00.834Z,0.00
2022-11-01T01:12:45.686Z,0.00
2022-11-01T01:13:31.051Z,0.00
2022-11-01T01:14:16.042Z,0.00
2022-11-01T01:15:00.814Z,0.00
2022-11-01T01:15:46.423Z,0.00
2022-11-01T01:16:31.254Z,0.00
2022-11-01T01:17:16.042Z,0.00
2022-11-01T01:18:01.200Z,0.00
2022-11-01T01:18:46.131Z,0.00
2022-11-01T01:19:31.196Z,0.00
2022-11-01T01:20:16.222Z,0.00
2022-11-01T01:21:01.331Z,0.00
2022-11-01T01:21:46.260Z,0.00
2022-11-01T01:22:31.517Z,0.00
2022-11-01T01:23:16.476Z,0.00
2022-11-01T01:24:01.635Z,0.00
2022-11-01T01:24:46.598Z,0.00
2022-11-01T01:25:31.550Z,0.00
2022-11-01T01:26:16.495Z,0.00
2022-11-01T01:27:01.676Z,0.00
2022-11-01T01:27:46.635Z,0.00
2022-11-01T01:28:31.667Z,0.00
2022-11-01T01:29:16.927Z,0.00
2022-11-01T01:30:02.190Z,0.00
2022-11-01T01:30:47.137Z,0.00
2022-11-01T01:31:32.400Z,0.00
2022-11-01T01:32:17.091Z,0.00
2022-11-01T01:33:02.089Z,0.00
2022-11-01T01:33:47.368Z,0.00
2022-11-01T01:34:32.118Z,0.00
2022-11-01T01:35:16.979Z,0.00
2022-11-01T01:36:02.228Z,0.00
2022-11-01T01:36:47.184Z,0.00
2022-11-01T01:37:32.544Z,0.00
2022-11-01T01:38:17.297Z,0.00
2022-11-01T01:39:02.108Z,0.00
2022-11-01T01:39:47.609Z,0.00
2022-11-01T01:40:32.692Z,0.00
2022-11-01T01:41:17.187Z,0.00
2022-11-01T01:42:02.556Z,0.00
2022-11-01T01:42:48.347Z,0.00
2022-11-01T01:43:32.813Z,0.00
2022-11-01T01:44:17.435Z,0.00
2022-11-01T01:45:02.798Z,0.00
2022-11-01T01:45:47.825Z,0.00
2022-11-01T01:46:33.117Z,0.00
2022-11-01T01:47:17.872Z,0.00
2022-11-01T01:48:03.288Z,0.00
2022-11-01T01:48:47.907Z,0.00
2022-11-01T01:49:33.214Z,0.00
2022-11-01T01:50:17.994Z,0.00
2022-11-01T01:51:03.049Z,0.00
2022-11-01T01:51:48.101Z,0.00
2022-11-01T01:52:33.259Z,0.00
2022-11-01T01:53:18.322Z,0.00
2022-11-01T01:54:03.477Z,0.00
2022-11-01T01:54:48.428Z,0.00
2022-11-01T01:55:33.489Z,0.00
2022-11-01T01:56:18.606Z,0.00
2022-11-01T01:57:03.626Z,0.00
2022-11-01T01:57:48.564Z,0.00
2022-11-01T01:58:33.649Z,0.00
2022-11-01T01:59:18.543Z,0.00
2022-11-01T02:00:04.373Z,0.00
2022-11-01T02:00:49.072Z,0.00
2022-11-01T02:01:34.263Z,0.00
2022-11-01T02:02:19.186Z,0.00
2022-11-01T02:03:04.414Z,0.00
2022-11-01T02:03:48.804Z,111.50
2022-11-01T02:04:33.995Z,84.79
2022-11-01T02:05:19.013Z,77.81
2022-11-01T02:06:03.999Z,78.81
2022-11-01T02:06:49.057Z,87.79
2022-11-01T02:07:34.396Z,92.77
2022-11-01T02:08:19.200Z,93.77
2022-11-01T02:09:04.059Z,86.79
2022-11-01T02:09:49.340Z,95.77
2022-11-01T02:10:34.970Z,96.76
2022-11-01T02:11:19.231Z,95.77
2022-11-01T02:12:04.708Z,161.61
2022-11-01T02:12:49.586Z,62.85
2022-11-01T02:13:34.397Z,85.61
2022-11-01T02:14:19.594Z,75.82
2022-11-01T02:15:04.430Z,69.83
2022-11-01T02:15:49.708Z,68.83
2022-11-01T02:16:34.871Z,67.83
2022-11-01T02:17:19.923Z,59.85
2022-11-01T02:18:05.100Z,63.84
2022-11-01T02:18:50.341Z,79.81
2022-11-01T02:19:34.890Z,68.83
2022-11-01T02:20:20.147Z,64.84
2022-11-01T02:21:05.109Z,94.63
2022-11-01T02:21:50.670Z,88.78
2022-11-01T02:22:35.118Z,113.72
2022-11-01T02:23:20.167Z,94.77
2022-11-01T02:24:05.638Z,76.81
2022-11-01T02:24:50.588Z,97.76
2022-11-01T02:25:35.439Z,160.38
2022-11-01T02:26:20.596Z,125.74
2022-11-01T02:27:05.455Z,105.78
2022-11-01T02:27:50.403Z,164.60
2022-11-01T02:28:36.382Z,203.21
2022-11-01T02:29:20.615Z,173.58
2022-11-01T02:30:05.638Z,168.59
2022-11-01T02:30:51.055Z,224.45
2022-11-01T02:31:35.883Z,203.50
2022-11-01T02:32:20.637Z,200.22
2022-11-01T02:33:06.034Z,231.44
2022-11-01T02:33:50.974Z,199.59
2022-11-01T02:34:36.117Z,254.47
2022-11-01T02:35:20.965Z,222.54
2022-11-01T02:36:06.127Z,268.53
2022-11-01T02:36:51.297Z,317.53
2022-11-01T02:37:36.102Z,441.34
2022-11-01T02:38:21.619Z,441.34
2022-11-01T02:39:06.797Z,466.31
2022-11-01T02:39:51.447Z,486.14
2022-11-01T02:40:36.271Z,419.26
2022-11-01T02:41:21.350Z,377.34
2022-11-01T02:42:06.475Z,356.37
2022-11-01T02:42:51.562Z,316.44
2022-11-01T02:43:37.204Z,327.42
2022-11-01T02:44:21.797Z,253.38
2022-11-01T02:45:06.697Z,200.65
2022-11-01T02:45:52.148Z,200.65
2022-11-01T02:46:37.122Z,295.39
2022-11-01T02:47:21.877Z,300.47
2022-11-01T02:48:07.144Z,433.24
2022-11-01T02:48:52.085Z,403.29
2022-11-01T02:49:37.143Z,415.27
2022-11-01T02:50:22.020Z,573.99
2022-11-01T02:51:07.253Z,920.38
2022-11-01T02:51:52.518Z,920.38
2022-11-01T02:52:50.968Z,705.76
2022-11-01T02:53:35.944Z,342.02
2022-11-01T02:54:20.676Z,373.34
2022-11-01T02:55:05.884Z,373.34
2022-11-01T02:55:50.956Z,364.36
2022-11-01T07:11:59.369Z,0.00
2022-11-01T07:12:44.036Z,0.00
2022-11-01T07:13:29.448Z,751.09
2022-11-01T07:14:14.197Z,1060.61
2022-11-01T07:14:59.465Z,1053.26
2022-11-01T07:15:44.205Z,615.72
2022-11-01T07:16:29.779Z,956.32
2022-11-01T07:17:14.611Z,956.32
2022-11-01T07:17:59.617Z,786.37
2022-11-01T07:18:44.529Z,786.37
2022-11-01T07:19:29.794Z,120.85
2022-11-01T07:20:14.644Z,119.85
2022-11-01T07:21:00.155Z,142.82
2022-11-01T07:21:45.896Z,286.50
2022-11-01T07:22:31.055Z,606.36
2022-11-01T07:23:15.075Z,1095.07
2022-11-01T07:23:59.929Z,1085.85
2022-11-01T07:24:45.090Z,989.96
2022-11-01T07:25:30.352Z,690.97
2022-11-01T07:26:15.099Z,606.36
2022-11-01T07:27:00.060Z,559.41
2022-11-01T07:27:45.416Z,613.35
2022-11-01T07:28:30.674Z,421.55
2022-11-01T07:29:15.221Z,538.43
2022-11-01T07:30:00.689Z,762.66
2022-11-01T07:30:45.649Z,836.95
2022-11-01T07:31:30.618Z,832.95
2022-11-01T07:32:15.480Z,912.85
2022-11-01T07:33:00.764Z,821.27
2022-11-01T07:33:45.578Z,881.07
2022-11-01T07:34:30.716Z,797.30
2022-11-01T07:35:16.182Z,348.69
2022-11-01T07:36:00.710Z,395.65
2022-11-01T07:36:45.884Z,377.67
2022-11-01T07:37:31.046Z,629.44
2022-11-01T07:38:16.257Z,948.59
2022-11-01T07:39:00.957Z,912.64
2022-11-01T07:39:45.708Z,944.04
2022-11-01T07:40:31.079Z,891.88
2022-11-01T07:41:15.866Z,912.64
2022-11-01T07:42:01.000Z,803.15
2022-11-01T07:42:45.928Z,930.61
2022-11-01T07:43:31.336Z,384.59
2022-11-01T07:44:15.938Z,467.51
2022-11-01T07:45:01.295Z,351.63
2022-11-01T07:45:46.361Z,636.33
2022-11-01T07:46:31.212Z,681.28
2022-11-01T07:47:16.162Z,846.51
2022-11-01T07:48:01.654Z,725.23
2022-11-01T07:48:46.380Z,684.28
2022-11-01T07:49:31.651Z,554.41
2022-11-01T07:50:16.602Z,753.20
2022-11-01T07:51:01.491Z,952.58
2022-11-01T07:51:46.342Z,890.06
2022-11-01T07:52:31.873Z,903.86
2022-11-01T07:53:16.618Z,919.63
2022-11-01T07:54:47.288Z,954.80
2022-11-01T07:55:31.840Z,843.11
2022-11-01T07:56:16.728Z,777.18
2022-11-01T07:57:02.209Z,770.19
2022-11-01T07:57:47.171Z,926.84
2022-11-01T07:58:32.322Z,860.92
2022-11-01T07:59:17.479Z,916.85
2022-11-01T08:00:02.482Z,886.06
2022-11-01T08:00:47.431Z,775.84
2022-11-01T08:01:32.702Z,790.01
2022-11-01T08:02:17.645Z,850.24
2022-11-01T08:03:02.862Z,859.72
2022-11-01T08:03:47.512Z,890.67
2022-11-01T08:04:32.564Z,887.68
2022-11-01T08:05:17.628Z,860.92
2022-11-01T08:06:02.577Z,874.70
2022-11-01T08:06:49.735Z,933.73
2022-11-01T08:07:33.000Z,958.31
2022-11-01T08:08:18.060Z,1028.87
2022-11-01T08:09:03.016Z,1094.34
2022-11-01T08:09:48.025Z,1107.30
2022-11-01T08:10:33.122Z,1098.33
2022-11-01T08:11:18.487Z,1091.89
2022-11-01T08:12:03.160Z,1092.34
2022-11-01T08:12:48.093Z,1097.87
2022-11-01T08:13:33.562Z,1100.32
2022-11-01T08:14:18.179Z,1096.75
2022-11-01T08:15:03.376Z,1092.73
2022-11-01T08:15:48.414Z,1099.74
2022-11-01T08:16:33.877Z,1107.30
2022-11-01T08:17:18.446Z,1097.33
2022-11-01T08:18:03.837Z,1094.73
2022-11-01T08:18:48.509Z,1107.30
2022-11-01T08:19:33.797Z,1103.85
2022-11-01T08:20:19.017Z,1096.87
2022-11-01T08:21:03.611Z,1097.87
2022-11-01T08:21:48.864Z,1103.85
2022-11-01T08:22:34.175Z,1096.87
2022-11-01T08:23:19.085Z,1094.29
2022-11-01T08:24:04.752Z,1106.84
2022-11-01T08:24:48.984Z,1090.35
2022-11-01T08:25:34.148Z,1097.33
2022-11-01T08:26:19.424Z,1095.75
2022-11-01T08:27:03.978Z,1102.86
2022-11-01T08:27:49.226Z,1100.73
2022-11-01T08:28:34.368Z,1103.72
2022-11-01T08:29:19.103Z,1097.75
2022-11-01T08:30:04.346Z,1091.77
2022-11-01T08:30:49.545Z,1098.74
2022-11-01T08:31:34.698Z,1100.73
2022-11-01T08:32:19.390Z,1097.75
2022-11-01T08:33:04.999Z,1099.86
2022-11-01T08:33:49.562Z,1098.87
2022-11-01T08:34:34.622Z,1098.87
2022-11-01T08:35:19.490Z,1096.07
2022-11-01T08:36:04.455Z,1094.88
2022-11-01T08:36:50.406Z,1096.07
2022-11-01T08:37:34.567Z,1084.47
2022-11-01T08:38:20.521Z,1085.34
2022-11-01T08:39:04.929Z,1092.30
2022-11-01T08:39:49.705Z,1096.28
2022-11-01T08:40:35.173Z,1099.38
2022-11-01T08:41:20.334Z,1099.27
2022-11-01T08:42:04.899Z,1091.42
2022-11-01T08:42:50.036Z,1098.38
2022-11-01T08:43:39.548Z,1095.40
2022-11-01T08:44:20.356Z,1090.43
2022-11-01T08:45:05.205Z,1091.42
2022-11-01T08:45:50.160Z,1091.42
2022-11-01T08:46:35.451Z,1094.29
2022-11-01T08:47:20.272Z,1094.29
2022-11-01T08:48:05.412Z,1091.99
2022-11-01T08:48:50.218Z,1085.05
2022-11-01T08:49:35.444Z,1091.54
2022-11-01T08:50:20.087Z,1081.03
2022-11-01T08:51:05.374Z,1085.05
2022-11-01T08:51:50.611Z,1084.47
2022-11-01T08:52:36.095Z,1090.43
2022-11-01T08:53:20.727Z,1085.98
2022-11-01T08:54:05.754Z,1090.43
2022-11-01T08:54:50.837Z,1093.41
2022-11-01T08:55:37.933Z,1082.48
2022-11-01T08:56:20.871Z,1089.02
2022-11-01T08:57:05.897Z,1079.67
2022-11-01T08:57:51.061Z,1082.64
2022-11-01T08:58:36.237Z,1084.62
2022-11-01T08:59:21.056Z,1084.62
2022-11-01T09:00:06.130Z,1085.98
2022-11-01T09:00:51.160Z,1078.07
2022-11-01T09:01:36.518Z,1080.05
2022-11-01T09:02:21.530Z,1077.69
2022-11-01T09:03:06.559Z,1083.01
2022-11-01T09:03:51.406Z,1079.24
2022-11-01T09:04:36.447Z,1068.75
2022-11-01T09:05:21.517Z,1064.66
2022-11-01T09:06:06.784Z,1077.23
2022-11-01T09:06:51.961Z,1071.69
2022-11-01T09:07:37.003Z,1073.49
2022-11-01T09:08:21.849Z,1054.67
2022-11-01T09:09:06.918Z,1065.69
2022-11-01T09:09:52.683Z,1047.00
2022-11-01T09:10:36.693Z,1051.81
2022-11-01T09:11:22.007Z,1021.42
2022-11-01T09:12:10.845Z,988.55
2022-11-01T09:12:52.342Z,882.75
2022-11-01T09:13:37.152Z,925.66
2022-11-01T09:14:22.106Z,1030.91
2022-11-01T09:15:07.258Z,1041.24
2022-11-01T09:15:52.189Z,1029.96
2022-11-01T09:16:37.475Z,987.63
2022-11-01T09:17:22.734Z,1006.39
2022-11-01T09:18:07.690Z,872.07
2022-11-01T09:18:54.486Z,872.07
2022-11-01T09:19:38.003Z,872.07
2022-11-01T09:20:22.727Z,872.07
2022-11-01T09:21:07.925Z,935.36
2022-11-01T09:21:55.222Z,935.36
2022-11-01T09:22:37.921Z,182.73
2022-11-01T09:23:23.087Z,279.65
2022-11-01T09:24:08.035Z,314.60
2022-11-01T09:24:53.240Z,664.30
2022-11-01T09:25:38.260Z,555.30
2022-11-01T09:26:23.310Z,567.40
2022-11-01T09:27:08.362Z,567.40
2022-11-01T09:27:53.475Z,429.46
2022-11-01T09:28:38.683Z,364.36
2022-11-01T09:29:23.847Z,313.61
2022-11-01T09:30:08.695Z,346.56
2022-11-01T09:31:01.517Z,336.58
2022-11-01T09:31:38.598Z,547.31
2022-11-01T09:32:23.968Z,279.65
2022-11-01T09:33:08.822Z,384.52
2022-11-01T09:33:54.096Z,300.62
2022-11-01T09:34:38.824Z,292.63
2022-11-01T09:35:23.991Z,384.52
2022-11-01T09:36:08.943Z,371.53
2022-11-01T09:36:53.840Z,420.47
2022-11-01T09:37:39.395Z,494.38
2022-11-01T09:38:24.210Z,471.41
2022-11-01T09:39:09.353Z,414.48
2022-11-01T09:39:54.529Z,438.45
2022-11-01T09:40:39.373Z,358.55
2022-11-01T09:41:24.402Z,330.58
2022-11-01T09:42:09.798Z,299.62
2022-11-01T09:42:57.814Z,446.44
2022-11-01T09:43:39.812Z,487.39
2022-11-01T09:44:24.863Z,351.56
2022-11-01T09:45:09.952Z,332.58
2022-11-01T09:45:54.847Z,325.59
2022-11-01T09:46:39.838Z,395.50
2022-11-01T09:47:24.997Z,491.38
2022-11-01T09:48:10.150Z,852.34
2022-11-01T09:48:55.107Z,449.44
2022-11-01T09:49:40.262Z,491.38
2022-11-01T09:50:25.270Z,365.54
2022-11-01T09:51:10.125Z,408.49
2022-11-01T09:51:55.233Z,299.62
2022-11-01T09:52:40.304Z,578.27
2022-11-01T09:53:25.749Z,578.27
2022-11-01T09:54:10.595Z,412.48
2022-11-01T09:54:55.556Z,234.65
2022-11-01T09:55:40.435Z,304.37
2022-11-01T09:56:28.017Z,233.65
2022-11-01T09:57:10.720Z,398.41
2022-11-01T09:57:55.730Z,221.67
2022-11-01T09:58:40.834Z,221.67
2022-11-01T09:59:25.693Z,169.79
2022-11-01T10:00:10.948Z,111.83
2022-11-01T10:00:56.206Z,106.84
2022-11-01T10:01:41.050Z,97.85
2022-11-01T10:02:26.220Z,184.68
2022-11-01T10:03:56.328Z,232.59
2022-11-01T10:04:41.285Z,124.81
2022-11-01T10:05:26.139Z,174.74
2022-11-01T10:06:11.499Z,142.79
2022-11-01T10:06:56.373Z,186.72
2022-11-01T10:07:41.408Z,166.71
2022-11-01T10:08:26.377Z,162.71
2022-11-01T10:09:11.730Z,167.75
2022-11-01T10:09:56.688Z,154.73
2022-11-01T10:10:41.735Z,146.74
2022-11-01T10:11:26.798Z,143.75
2022-11-01T10:12:11.545Z,148.74
2022-11-01T10:12:56.802Z,161.72
2022-11-01T10:13:41.862Z,165.71
2022-11-01T10:14:26.952Z,156.72
2022-11-01T10:15:11.904Z,149.74
2022-11-01T10:15:57.034Z,120.79
2022-11-01T10:16:42.585Z,112.80
2022-11-01T10:17:27.151Z,122.78
2022-11-01T10:18:12.396Z,99.82
2022-11-01T10:18:57.152Z,117.79
2022-11-01T10:19:42.311Z,152.73
2022-11-01T10:20:27.167Z,87.79
2022-11-01T10:21:12.217Z,94.83
2022-11-01T10:21:57.489Z,215.62
2022-11-01T10:22:42.344Z,111.80
2022-11-01T10:23:27.745Z,75.78
2022-11-01T10:24:12.550Z,108.81
2022-11-01T10:24:57.609Z,89.81
2022-11-01T10:25:42.659Z,81.83
2022-11-01T10:26:28.436Z,91.84
2022-11-01T10:27:12.608Z,108.81
2022-11-01T10:27:57.733Z,80.86
2022-11-01T10:28:42.685Z,88.84
2022-11-01T10:29:27.857Z,84.85
2022-11-01T10:30:12.690Z,240.58
2022-11-01T10:30:58.055Z,103.78
2022-11-01T10:31:43.010Z,94.83
2022-11-01T10:32:28.684Z,86.85
2022-11-01T10:33:13.329Z,121.79
2022-11-01T10:33:57.996Z,106.81
2022-11-01T10:34:42.932Z,88.84
2022-11-01T10:35:28.545Z,91.81
2022-11-01T10:36:13.354Z,173.64
2022-11-01T10:36:58.347Z,107.78
2022-11-01T10:37:51.945Z,201.43
2022-11-01T10:38:41.837Z,121.75
2022-11-01T10:39:53.442Z,71.72
2022-11-01T10:40:00.088Z,62.87
2022-11-01T10:40:43.452Z,75.84
2022-11-01T10:41:28.675Z,59.88
2022-11-01T10:42:13.387Z,91.84
2022-11-01T10:42:58.652Z,65.88
2022-11-01T10:43:44.025Z,99.82
2022-11-01T10:44:29.075Z,80.86
2022-11-01T10:45:13.725Z,57.90
2022-11-01T10:45:58.769Z,63.89
2022-11-01T10:46:43.660Z,64.89
2022-11-01T10:47:28.990Z,115.80
2022-11-01T10:48:14.259Z,92.84
2022-11-01T10:48:58.803Z,72.87
2022-11-01T10:50:04.662Z,76.86
2022-11-01T10:50:29.629Z,101.82
2022-11-01T10:51:14.174Z,78.86
2022-11-01T10:51:59.165Z,74.87
2022-11-01T10:52:44.130Z,65.86
2022-11-01T10:53:29.248Z,65.86
2022-11-01T10:54:14.197Z,122.78
2022-11-01T10:54:59.150Z,76.86
2022-11-01T10:55:44.408Z,204.64
2022-11-01T10:56:29.567Z,420.26
2022-11-01T10:57:14.519Z,166.71
2022-11-01T10:57:59.393Z,157.72
2022-11-01T10:58:44.659Z,178.69
2022-11-01T10:59:29.839Z,151.73
2022-11-01T11:00:14.863Z,137.76
2022-11-01T11:00:59.672Z,93.73
2022-11-01T11:01:44.818Z,144.75
2022-11-01T11:02:30.055Z,102.82
2022-11-01T11:03:14.619Z,124.78
2022-11-01T11:03:59.938Z,124.78
2022-11-01T11:04:44.857Z,235.59
2022-11-01T11:05:30.158Z,180.56
2022-11-01T11:06:15.097Z,183.68
2022-11-01T11:07:00.176Z,153.56
2022-11-01T11:07:45.103Z,129.73
2022-11-01T11:08:30.468Z,134.72
2022-11-01T11:09:15.425Z,143.75
2022-11-01T11:10:45.432Z,130.77
2022-11-01T11:11:30.810Z,99.82
2022-11-01T11:12:15.525Z,103.82
2022-11-01T11:13:00.811Z,82.83
2022-11-01T11:13:45.419Z,93.81
2022-11-01T11:14:30.485Z,78.84
2022-11-01T11:15:15.565Z,78.86
2022-11-01T11:16:00.731Z,129.77
2022-11-01T11:16:45.622Z,181.68
2022-11-01T11:17:30.840Z,215.62
2022-11-01T11:18:15.755Z,139.75
2022-11-01T11:19:00.544Z,107.81
2022-11-01T11:19:45.937Z,119.75
2022-11-01T11:20:31.058Z,99.79
2022-11-01T11:21:16.383Z,135.72
2022-11-01T11:22:01.385Z,123.78
2022-11-01T11:22:46.345Z,149.74
2022-11-01T11:23:31.394Z,149.74
2022-11-01T11:24:16.347Z,256.55
2022-11-01T11:25:01.344Z,282.50
2022-11-01T11:25:46.354Z,436.23
2022-11-01T11:26:34.910Z,436.23
2022-11-01T11:27:16.367Z,224.60
2022-11-01T11:28:01.753Z,186.61
2022-11-01T11:28:46.479Z,202.58
2022-11-01T11:29:31.849Z,244.05
2022-11-01T11:30:16.796Z,201.51
2022-11-01T11:31:01.657Z,205.50
2022-11-01T11:31:46.806Z,228.44
2022-11-01T11:32:32.475Z,193.25
2022-11-01T11:33:17.239Z,229.52
2022-11-01T11:34:02.008Z,161.66
2022-11-01T11:34:47.317Z,159.67
2022-11-01T11:35:32.195Z,143.65
2022-11-01T11:36:17.145Z,125.69
2022-11-01T11:37:02.199Z,101.75
2022-11-01T11:37:47.053Z,130.68
2022-11-01T11:38:32.521Z,130.68
2022-11-01T11:39:17.302Z,95.77
2022-11-01T11:40:02.432Z,119.66
2022-11-01T11:40:47.191Z,136.61
2022-11-01T11:41:32.439Z,162.27
2022-11-01T11:42:17.492Z,153.56
2022-11-01T11:43:02.700Z,119.46
2022-11-01T11:43:48.223Z,126.64
2022-11-01T11:44:32.461Z,113.49
2022-11-01T11:45:17.594Z,101.75
2022-11-01T11:46:02.816Z,106.74
2022-11-01T11:46:47.943Z,128.63
2022-11-01T11:47:32.889Z,106.70
2022-11-01T11:48:17.955Z,141.66
2022-11-01T11:49:03.020Z,122.70
2022-11-01T11:49:47.853Z,125.69
2022-11-01T11:50:33.428Z,115.48
2022-11-01T11:51:18.383Z,166.53
2022-11-01T11:52:03.238Z,135.39
2022-11-01T11:52:48.183Z,89.74
2022-11-01T11:53:33.752Z,91.74
2022-11-01T11:54:18.278Z,112.68
2022-11-01T11:55:03.212Z,74.79
2022-11-01T11:55:48.305Z,120.66
2022-11-01T11:56:33.572Z,117.66
2022-11-01T11:57:19.133Z,107.69
2022-11-01T11:58:04.382Z,69.73
2022-11-01T11:58:48.943Z,99.61
2022-11-01T11:59:34.043Z,80.69
2022-11-01T12:00:18.753Z,85.61
2022-11-01T12:01:03.826Z,97.56
2022-11-01T12:01:49.081Z,120.46
2022-11-01T12:02:35.103Z,97.56
2022-11-01T12:03:19.157Z,237.76
2022-11-01T12:04:04.336Z,138.28
2022-11-01T12:04:49.403Z,140.27
2022-11-01T12:05:34.453Z,104.46
2022-11-01T12:06:19.458Z,89.53
2022-11-01T12:07:04.461Z,80.58
2022-11-01T12:07:49.533Z,77.60
2022-11-01T12:08:34.803Z,70.63
2022-11-01T12:09:22.849Z,63.67
2022-11-01T12:10:04.608Z,68.64
2022-11-01T12:10:49.539Z,97.49
2022-11-01T12:11:35.008Z,69.64
2022-11-01T12:12:19.759Z,58.69
2022-11-01T12:13:05.429Z,85.55
2022-11-01T12:13:49.567Z,90.53
2022-11-01T12:14:35.026Z,167.13
2022-11-01T12:15:19.858Z,82.57
2022-11-01T12:16:05.038Z,84.56
2022-11-01T12:16:49.954Z,78.59
2022-11-01T12:17:34.853Z,69.69
2022-11-01T12:18:19.944Z,82.63
2022-11-01T12:19:04.954Z,61.72
2022-11-01T12:19:50.316Z,69.69
2022-11-01T12:20:35.299Z,57.74
2022-11-01T12:21:20.230Z,60.73
2022-11-01T12:22:05.393Z,77.70
2022-11-01T12:22:50.544Z,78.69
2022-11-01T12:23:35.407Z,74.71
2022-11-01T12:24:20.452Z,70.63
2022-11-01T12:25:06.022Z,53.85
2022-11-01T12:25:50.771Z,108.58
2022-11-01T12:26:35.732Z,59.77
2022-11-01T12:27:20.878Z,56.78
2022-11-01T12:28:06.255Z,107.58
2022-11-01T12:28:50.784Z,88.66
2022-11-01T12:29:36.048Z,92.64
2022-11-01T12:30:21.622Z,105.45
2022-11-01T12:31:06.167Z,114.56
2022-11-01T12:31:51.119Z,139.46
2022-11-01T12:32:36.183Z,95.63
2022-11-01T12:33:21.539Z,95.63
2022-11-01T12:34:06.085Z,61.76
2022-11-01T12:34:51.240Z,133.48
2022-11-01T12:35:36.231Z,72.72
2022-11-01T12:36:22.067Z,70.73
2022-11-01T12:37:06.517Z,89.65
2022-11-01T12:37:51.483Z,71.72
2022-11-01T12:38:36.551Z,70.73
2022-11-01T12:39:21.400Z,65.75
2022-11-01T12:40:06.579Z,74.71
2022-11-01T12:40:51.517Z,71.80
2022-11-01T12:41:36.650Z,68.73
2022-11-01T12:42:21.394Z,54.79
2022-11-01T12:43:07.070Z,151.57
2022-11-01T12:43:51.750Z,120.66
2022-11-01T12:44:36.718Z,87.75
2022-11-01T12:45:22.237Z,67.81
2022-11-01T12:46:06.795Z,82.57
2022-11-01T12:46:52.154Z,94.73
2022-11-01T12:47:37.002Z,100.48
2022-11-01T12:48:21.950Z,99.61
2022-11-01T12:49:07.337Z,88.66
2022-11-01T12:49:52.268Z,110.57
2022-11-01T12:50:37.117Z,81.68
2022-11-01T12:51:22.391Z,67.74
2022-11-01T12:52:52.490Z,97.62
2022-11-01T12:53:37.570Z,109.58
2022-11-01T12:54:22.402Z,100.61
2022-11-01T12:55:07.346Z,109.58
2022-11-01T12:55:52.623Z,110.57
2022-11-01T12:56:37.722Z,94.63
2022-11-01T12:57:22.832Z,63.75
2022-11-01T12:58:07.633Z,89.65
2022-11-01T12:58:53.151Z,72.72
2022-11-01T12:59:38.002Z,102.60
2022-11-01T13:00:22.877Z,416.81
2022-11-01T13:01:08.199Z,84.76
2022-11-01T13:01:53.076Z,68.80
2022-11-01T13:02:38.071Z,68.80
2022-11-01T13:03:23.074Z,76.78
2022-11-01T13:04:08.753Z,42.88
2022-11-01T13:04:53.137Z,41.90
2022-11-01T13:05:38.490Z,44.89
2022-11-01T13:06:23.563Z,49.88
2022-11-01T13:07:08.632Z,48.86
2022-11-01T13:07:53.518Z,49.86
2022-11-01T13:08:38.479Z,62.82
2022-11-01T13:09:24.043Z,65.81
2022-11-01T13:10:08.643Z,65.81
2022-11-01T13:10:54.464Z,98.72
2022-11-01T13:11:38.704Z,49.86
2022-11-01T13:12:23.620Z,54.84
2022-11-01T13:13:08.980Z,54.84
2022-11-01T13:13:53.949Z,48.88
2022-11-01T13:14:39.065Z,38.83
2022-11-01T13:15:27.293Z,62.82
2022-11-01T13:16:09.090Z,65.70
2022-11-01T13:16:54.296Z,43.87
2022-11-01T13:17:39.176Z,46.87
2022-11-01T13:18:24.211Z,64.84
2022-11-01T13:19:09.372Z,62.72
2022-11-01T13:19:54.138Z,103.70
2022-11-01T13:20:39.112Z,50.86
2022-11-01T13:21:24.644Z,48.86
2022-11-01T13:22:09.649Z,57.84
2022-11-01T13:22:54.649Z,69.80
2022-11-01T13:23:40.011Z,68.80
2022-11-01T13:24:24.861Z,57.86
2022-11-01T13:25:09.621Z,41.90
2022-11-01T13:25:54.884Z,43.87
2022-11-01T13:26:39.933Z,63.82
2022-11-01T13:27:24.990Z,93.73
2022-11-01T13:28:09.840Z,63.71
2022-11-01T13:28:54.689Z,50.86
2022-11-01T13:29:40.161Z,52.85
2022-11-01T13:30:25.329Z,146.58
2022-11-01T13:31:10.165Z,74.71
2022-11-01T13:31:55.122Z,62.76
2022-11-01T13:32:40.178Z,51.80
2022-11-01T13:33:25.058Z,74.71
2022-11-01T13:34:10.188Z,61.76
2022-11-01T13:34:55.343Z,60.76
2022-11-01T13:35:40.299Z,56.78
2022-11-01T13:36:28.673Z,63.75
2022-11-01T13:37:10.415Z,66.74
2022-11-01T13:37:55.574Z,54.79
2022-11-01T13:38:40.632Z,49.81
2022-11-01T13:39:25.591Z,57.78
2022-11-01T13:40:10.646Z,94.51
2022-11-01T13:40:56.416Z,54.79
2022-11-01T13:41:40.749Z,41.88
2022-11-01T13:42:25.810Z,37.91
2022-11-01T13:43:10.566Z,34.91
2022-11-01T13:43:55.821Z,54.87
2022-11-01T13:44:40.698Z,115.72
2022-11-01T13:45:26.240Z,83.80
2022-11-01T13:46:11.191Z,71.68
2022-11-01T13:46:55.944Z,81.77
2022-11-01T13:47:41.162Z,81.77
2022-11-01T13:48:26.464Z,105.70
2022-11-01T13:49:11.321Z,68.80
2022-11-01T13:49:58.634Z,85.76
2022-11-01T13:50:41.330Z,82.76